!!! Benutzen Sie für Ihre Flugvorbereitung die offiziellen Quellen !!!

Metar:

EDQM 201150Z 19006KT 130V250 9999 SCT048 26/13 Q1022

QNH: 1022
Temperatur: 26
Dew Point : 13

 

METAR (decoded)